首页
METAR-TAF:

METAR-TAF

机场 :

洛斯莫奇斯, 墨西哥

纬度: 25-41N, 经度: 109-05W, 海拔: 4米

当前天气观测

该预报发布于33分钟前的23:47 UTC
风速10节,风向西
温度 34°C
湿度 47%
气压 1010 hPa
能見度: 16.1公里
天空无云

METAR: MMLM 152347Z 26010KT 10SM SKC 34/21 A2983 RMK SLP102

时间: 18:20 (00:20 UTC)

预报

该预报发布于7小时和25分钟前的16:55 UTC
预报有效从15日的 18点(UTC)到 16日的 18点(UTC)
风速15节,风向西北
能見度: 10公里
散云层高于2000英尺
散云层高于10000英尺
从 15日的 2000点(UTC)
风速15节,风向西北
能見度: 10公里
多云层高于2000英尺, 积雨云.
多云层高于10000英尺
短暂存在
从 15日的 21点(UTC)到 15日的 24点(UTC)
能見度: 8.0公里
雷暴, 雨
从 16日的 0100点(UTC)
风速10节,风向西北
能見度: 10公里
散云层高于2000英尺
多云层高于7000英尺
从 16日的 0600点(UTC)
风速5节,风向西北
能見度: 10公里
天空无云
从 16日的 1200点(UTC)
风速5节,风向东北
能見度: 10公里
散云层高于10000英尺

TAF: MMLM 151655Z 1518/1618 31015KT P6SM SCT020 SCT100 FM152000 31015KT P6SM BKN020CB BKN100 TEMPO 1521/1524 5SM TSRA FM160100 32010KT P6SM SCT020 BKN070 FM160600 32005KT P6SM SKC FM161200 04005KT P6SM SCT100

超过4000个机场的气象观测和天气预报(METAR&TAF报告)。

可查询的气象台以黄色和红色小点在地图上表示。

将鼠标移到小点上方,可查看气象台名称。

然后点击查看天气观测和预报。

如需切换地图:点击带黑十字的绿色按钮放大地图;点击带横线的绿色按钮缩小地图;或者点击绿色箭头查看邻近地区的地图。


METAR-TAF: